MSC Paola — 9HA2581 — position and weather

sailwx.info

Track history (hours):
 
Tides and Currents Weather Stations Pressure Air Temp Water Temp Dewpoint Dewpoint Depression Visibility Wind Speed Wind Dir Waves Ship Positions

MSC Paola

Last reported at 2016-Jun-25 07:33 UTC. Time now 2016-Jun-25 08:56 UTC.
Position N 38°44' W 076°26'.

Length 243 m; draft 9.1 m.

Type: Ship (hazmat cat A). MMSI: 248931000.

Date/timePositionNaut miles runAvg speedWind from/ knotsBaromVisibWave heightAir tempDewpointWater temp
2016-Jun-25 07:33N 38°44' W 076°26'1817.1
2016-Jun-25 06:31N 39°01' W 076°22'1212.1
2016-Jun-25 05:33N 39°12' W 076°29'5 5.0
2016-Jun-25 04:33N 39°15' W 076°33'0 0.0
2016-Jun-25 03:32N 39°15' W 076°33'0 0.0
2016-Jun-25 02:33N 39°15' W 076°33'0 0.0
2016-Jun-25 01:33N 39°15' W 076°33'0 0.0
2016-Jun-25 00:28N 39°15' W 076°33'0 0.0
2016-Jun-24 23:31N 39°15' W 076°33'0 0.0
2016-Jun-24 22:33N 39°15' W 076°33'0 0.0
2016-Jun-24 21:33N 39°15' W 076°33'5 5.0
2016-Jun-24 20:33N 39°12' W 076°29'1313.0
2016-Jun-24 19:33N 38°59' W 076°23'1816.9
2016-Jun-24 18:30N 38°42' W 076°26'4217.6
2016-Jun-24 16:08N 38°01' W 076°12'5716.0
2016-Jun-24 12:33N 37°04' W 076°06'1313.4
2016-Jun-24 11:33N 36°55' W 075°54'8215.4
2016-Jun-24 06:13N 37°53' W 074°42'3319.4
2016-Jun-24 04:30N 38°24' W 074°24'3718.6
2016-Jun-24 02:31N 38°57' W 074°04'2018.3
2016-Jun-24 01:25N 39°17' W 073°58'1517.4
2016-Jun-24 00:33N 39°32' W 073°55'1918.5
2016-Jun-23 23:33N 39°50' W 073°53'2018.6
2016-Jun-23 22:30N 40°10' W 073°51'1616.4
2016-Jun-23 21:31N 40°26' W 073°49'1415.2
2016-Jun-23 20:33N 40°36' W 074°03'6 6.1
2016-Jun-23 19:33N 40°40' W 074°08'1 1.2
2016-Jun-23 18:32N 40°41' W 074°09'0 0.0
2016-Jun-23 17:30N 40°41' W 074°09'0 0.0
2016-Jun-23 16:32N 40°41' W 074°09'0 0.0
2016-Jun-23 15:32N 40°41' W 074°09'0 0.0
2016-Jun-23 14:30N 40°41' W 074°09'0 0.0
2016-Jun-23 13:33N 40°41' W 074°09'0 0.0
2016-Jun-23 12:33N 40°41' W 074°09'0 0.0
2016-Jun-23 11:29N 40°41' W 074°09'0 0.0
2016-Jun-23 10:33N 40°41' W 074°09'0 0.0
2016-Jun-23 09:23N 40°41' W 074°09'0 0.0
2016-Jun-23 08:28N 40°41' W 074°09'0 0.0
2016-Jun-23 07:29N 40°41' W 074°09'0 0.0
2016-Jun-23 05:30N 40°41' W 074°09'0 0.0
2016-Jun-23 04:26N 40°41' W 074°09'0 0.0
2016-Jun-23 03:25N 40°41' W 074°09'0 0.0
2016-Jun-23 02:34N 40°41' W 074°09'0 0.0
2016-Jun-23 01:19N 40°41' W 074°09'0 0.0
2016-Jun-23 00:33N 40°41' W 074°09'0 0.1
2016-Jun-22 22:32N 40°41' W 074°09'0 0.0
2016-Jun-22 21:29N 40°41' W 074°09'0 0.0
2016-Jun-22 20:13N 40°41' W 074°09'0 0.0
2016-Jun-22 18:19N 40°41' W 074°09'0 0.0
2016-Jun-22 17:30N 40°41' W 074°09'0 0.0
2016-Jun-22 16:26N 40°41' W 074°09'0 0.0
2016-Jun-22 15:29N 40°41' W 074°09'0 0.0
2016-Jun-22 14:08N 40°41' W 074°09'0 0.0
2016-Jun-22 12:25N 40°41' W 074°09'0 0.0
2016-Jun-22 11:33N 40°41' W 074°09'1 1.5
2016-Jun-22 10:33N 40°40' W 074°08'4 3.7
2016-Jun-22 09:33N 40°39' W 074°04'  
Track history (hours):
 
Tides and Currents Weather Stations Pressure Air Temp Water Temp Dewpoint Dewpoint Depression Visibility Wind Speed Wind Dir Waves Ship Positions

MSC Paola

Last reported at 2016-Jun-25 07:33 UTC. Time now 2016-Jun-25 08:56 UTC.
Position N 38°44' W 076°26'.

Length 243 m; draft 9.1 m.

Type: Ship (hazmat cat A). MMSI: 248931000.

Date/timePositionNaut miles runAvg speedWind from/ knotsBaromVisibWave heightAir tempDewpointWater temp
2016-Jun-25 07:33N 38°44' W 076°26'1817.1
2016-Jun-25 06:31N 39°01' W 076°22'1212.1
2016-Jun-25 05:33N 39°12' W 076°29'5 5.0
2016-Jun-25 04:33N 39°15' W 076°33'0 0.0
2016-Jun-25 03:32N 39°15' W 076°33'0 0.0
2016-Jun-25 02:33N 39°15' W 076°33'0 0.0
2016-Jun-25 01:33N 39°15' W 076°33'0 0.0
2016-Jun-25 00:28N 39°15' W 076°33'0 0.0
2016-Jun-24 23:31N 39°15' W 076°33'0 0.0
2016-Jun-24 22:33N 39°15' W 076°33'0 0.0
2016-Jun-24 21:33N 39°15' W 076°33'5 5.0
2016-Jun-24 20:33N 39°12' W 076°29'1313.0
2016-Jun-24 19:33N 38°59' W 076°23'1816.9
2016-Jun-24 18:30N 38°42' W 076°26'4217.6
2016-Jun-24 16:08N 38°01' W 076°12'5716.0
2016-Jun-24 12:33N 37°04' W 076°06'1313.4
2016-Jun-24 11:33N 36°55' W 075°54'8215.4
2016-Jun-24 06:13N 37°53' W 074°42'3319.4
2016-Jun-24 04:30N 38°24' W 074°24'3718.6
2016-Jun-24 02:31N 38°57' W 074°04'2018.3
2016-Jun-24 01:25N 39°17' W 073°58'1517.4
2016-Jun-24 00:33N 39°32' W 073°55'1918.5
2016-Jun-23 23:33N 39°50' W 073°53'2018.6
2016-Jun-23 22:30N 40°10' W 073°51'1616.4
2016-Jun-23 21:31N 40°26' W 073°49'1415.2
2016-Jun-23 20:33N 40°36' W 074°03'6 6.1
2016-Jun-23 19:33N 40°40' W 074°08'1 1.2
2016-Jun-23 18:32N 40°41' W 074°09'0 0.0
2016-Jun-23 17:30N 40°41' W 074°09'0 0.0
2016-Jun-23 16:32N 40°41' W 074°09'0 0.0
2016-Jun-23 15:32N 40°41' W 074°09'0 0.0
2016-Jun-23 14:30N 40°41' W 074°09'0 0.0
2016-Jun-23 13:33N 40°41' W 074°09'0 0.0
2016-Jun-23 12:33N 40°41' W 074°09'0 0.0
2016-Jun-23 11:29N 40°41' W 074°09'0 0.0
2016-Jun-23 10:33N 40°41' W 074°09'0 0.0
2016-Jun-23 09:23N 40°41' W 074°09'0 0.0
2016-Jun-23 08:28N 40°41' W 074°09'0 0.0
2016-Jun-23 07:29N 40°41' W 074°09'0 0.0
2016-Jun-23 05:30N 40°41' W 074°09'0 0.0
2016-Jun-23 04:26N 40°41' W 074°09'0 0.0
2016-Jun-23 03:25N 40°41' W 074°09'0 0.0
2016-Jun-23 02:34N 40°41' W 074°09'0 0.0
2016-Jun-23 01:19N 40°41' W 074°09'0 0.0
2016-Jun-23 00:33N 40°41' W 074°09'0 0.1
2016-Jun-22 22:32N 40°41' W 074°09'0 0.0
2016-Jun-22 21:29N 40°41' W 074°09'0 0.0
2016-Jun-22 20:13N 40°41' W 074°09'0 0.0
2016-Jun-22 18:19N 40°41' W 074°09'0 0.0
2016-Jun-22 17:30N 40°41' W 074°09'0 0.0
2016-Jun-22 16:26N 40°41' W 074°09'0 0.0
2016-Jun-22 15:29N 40°41' W 074°09'0 0.0
2016-Jun-22 14:08N 40°41' W 074°09'0 0.0
2016-Jun-22 12:25N 40°41' W 074°09'0 0.0
2016-Jun-22 11:33N 40°41' W 074°09'1 1.5
2016-Jun-22 10:33N 40°40' W 074°08'4 3.7
2016-Jun-22 09:33N 40°39' W 074°04'  

Dump ship's entire track history